sensor_id;sensor_type;location;lat;lon;timestamp;temperature;humidity
5172;DHT22;2605;49.770;9.868;2023-12-29T00:00:04;8.50;99.90
5172;DHT22;2605;49.770;9.868;2023-12-29T00:02:30;8.50;99.90
5172;DHT22;2605;49.770;9.868;2023-12-29T00:04:56;8.50;99.90
5172;DHT22;2605;49.770;9.868;2023-12-29T00:07:21;8.50;99.90
5172;DHT22;2605;49.770;9.868;2023-12-29T00:09:46;8.50;99.90
5172;DHT22;2605;49.770;9.868;2023-12-29T00:12:12;8.40;99.90
5172;DHT22;2605;49.770;9.868;2023-12-29T00:14:39;8.40;99.90
5172;DHT22;2605;49.770;9.868;2023-12-29T00:17:04;8.40;99.90
5172;DHT22;2605;49.770;9.868;2023-12-29T00:19:30;8.50;99.90
5172;DHT22;2605;49.770;9.868;2023-12-29T00:21:55;8.50;99.90
5172;DHT22;2605;49.770;9.868;2023-12-29T00:24:21;8.50;99.90
5172;DHT22;2605;49.770;9.868;2023-12-29T00:26:46;8.50;99.90
5172;DHT22;2605;49.770;9.868;2023-12-29T00:29:14;8.50;99.90
5172;DHT22;2605;49.770;9.868;2023-12-29T00:31:40;8.60;99.90
5172;DHT22;2605;49.770;9.868;2023-12-29T00:34:06;8.60;99.90
5172;DHT22;2605;49.770;9.868;2023-12-29T00:36:31;8.60;99.90
5172;DHT22;2605;49.770;9.868;2023-12-29T00:38:57;8.60;99.90
5172;DHT22;2605;49.770;9.868;2023-12-29T00:41:22;8.60;99.90
5172;DHT22;2605;49.770;9.868;2023-12-29T00:43:47;8.60;99.90
5172;DHT22;2605;49.770;9.868;2023-12-29T00:46:14;8.70;99.90
5172;DHT22;2605;49.770;9.868;2023-12-29T00:48:41;8.60;99.90
5172;DHT22;2605;49.770;9.868;2023-12-29T00:51:06;8.70;99.90
5172;DHT22;2605;49.770;9.868;2023-12-29T00:53:34;8.70;99.90
5172;DHT22;2605;49.770;9.868;2023-12-29T00:56:00;8.70;99.90
5172;DHT22;2605;49.770;9.868;2023-12-29T00:58:26;8.60;99.90
5172;DHT22;2605;49.770;9.868;2023-12-29T01:00:51;8.70;99.90
5172;DHT22;2605;49.770;9.868;2023-12-29T01:03:17;8.70;99.90
5172;DHT22;2605;49.770;9.868;2023-12-29T01:05:43;8.70;99.90
5172;DHT22;2605;49.770;9.868;2023-12-29T01:08:08;8.70;99.90
5172;DHT22;2605;49.770;9.868;2023-12-29T01:10:34;8.60;99.90
5172;DHT22;2605;49.770;9.868;2023-12-29T01:12:59;8.70;99.90
5172;DHT22;2605;49.770;9.868;2023-12-29T01:15:25;8.50;99.90
5172;DHT22;2605;49.770;9.868;2023-12-29T01:17:53;8.50;99.90
5172;DHT22;2605;49.770;9.868;2023-12-29T01:20:18;8.40;99.90
5172;DHT22;2605;49.770;9.868;2023-12-29T01:22:44;8.40;99.90
5172;DHT22;2605;49.770;9.868;2023-12-29T01:25:09;8.40;99.90
5172;DHT22;2605;49.770;9.868;2023-12-29T01:27:35;8.40;99.90
5172;DHT22;2605;49.770;9.868;2023-12-29T01:30:00;8.40;99.90
5172;DHT22;2605;49.770;9.868;2023-12-29T01:32:26;8.70;99.90
5172;DHT22;2605;49.770;9.868;2023-12-29T01:34:54;8.40;99.90
5172;DHT22;2605;49.770;9.868;2023-12-29T01:37:20;8.30;99.90
5172;DHT22;2605;49.770;9.868;2023-12-29T01:39:45;8.30;99.90
5172;DHT22;2605;49.770;9.868;2023-12-29T01:42:11;8.30;99.90
5172;DHT22;2605;49.770;9.868;2023-12-29T01:44:40;8.40;99.90
5172;DHT22;2605;49.770;9.868;2023-12-29T01:47:14;8.30;99.90
5172;DHT22;2605;49.770;9.868;2023-12-29T01:49:43;8.40;99.90
5172;DHT22;2605;49.770;9.868;2023-12-29T01:52:09;8.40;99.90
5172;DHT22;2605;49.770;9.868;2023-12-29T01:54:36;8.40;99.90
5172;DHT22;2605;49.770;9.868;2023-12-29T01:57:06;8.40;99.90
5172;DHT22;2605;49.770;9.868;2023-12-29T01:59:35;8.40;99.90
5172;DHT22;2605;49.770;9.868;2023-12-29T02:02:01;8.40;99.90
5172;DHT22;2605;49.770;9.868;2023-12-29T02:04:28;8.40;99.90
5172;DHT22;2605;49.770;9.868;2023-12-29T02:06:54;8.40;99.90
5172;DHT22;2605;49.770;9.868;2023-12-29T02:09:20;8.40;99.90
5172;DHT22;2605;49.770;9.868;2023-12-29T02:11:46;8.40;99.90
5172;DHT22;2605;49.770;9.868;2023-12-29T02:14:15;8.50;99.90
5172;DHT22;2605;49.770;9.868;2023-12-29T02:17:13;8.40;99.90
5172;DHT22;2605;49.770;9.868;2023-12-29T02:19:42;8.50;99.90
5172;DHT22;2605;49.770;9.868;2023-12-29T02:22:09;8.50;99.90
5172;DHT22;2605;49.770;9.868;2023-12-29T02:24:36;8.50;99.90
5172;DHT22;2605;49.770;9.868;2023-12-29T02:27:34;8.50;99.90
5172;DHT22;2605;49.770;9.868;2023-12-29T02:30:17;8.50;99.90
5172;DHT22;2605;49.770;9.868;2023-12-29T02:32:46;8.50;99.90
5172;DHT22;2605;49.770;9.868;2023-12-29T02:35:17;8.50;99.90
5172;DHT22;2605;49.770;9.868;2023-12-29T02:37:43;8.50;99.90
5172;DHT22;2605;49.770;9.868;2023-12-29T02:40:09;8.50;99.90
5172;DHT22;2605;49.770;9.868;2023-12-29T02:42:35;8.50;99.90
5172;DHT22;2605;49.770;9.868;2023-12-29T02:45:01;8.50;99.90
5172;DHT22;2605;49.770;9.868;2023-12-29T02:47:26;8.50;99.90
5172;DHT22;2605;49.770;9.868;2023-12-29T02:49:52;8.50;99.90
5172;DHT22;2605;49.770;9.868;2023-12-29T02:52:21;8.50;99.90
5172;DHT22;2605;49.770;9.868;2023-12-29T02:54:46;8.60;99.90
5172;DHT22;2605;49.770;9.868;2023-12-29T02:57:12;8.50;99.90
5172;DHT22;2605;49.770;9.868;2023-12-29T02:59:37;8.50;99.90
5172;DHT22;2605;49.770;9.868;2023-12-29T03:02:03;8.50;99.90
5172;DHT22;2605;49.770;9.868;2023-12-29T03:04:29;8.50;99.90
5172;DHT22;2605;49.770;9.868;2023-12-29T03:06:54;8.40;99.90
5172;DHT22;2605;49.770;9.868;2023-12-29T03:09:20;8.40;99.90
5172;DHT22;2605;49.770;9.868;2023-12-29T03:11:45;8.40;99.90
5172;DHT22;2605;49.770;9.868;2023-12-29T03:14:11;8.40;99.90
5172;DHT22;2605;49.770;9.868;2023-12-29T03:16:36;8.30;99.90
5172;DHT22;2605;49.770;9.868;2023-12-29T03:19:02;8.30;99.90
5172;DHT22;2605;49.770;9.868;2023-12-29T03:21:27;8.30;99.90
5172;DHT22;2605;49.770;9.868;2023-12-29T03:23:53;8.30;99.90
5172;DHT22;2605;49.770;9.868;2023-12-29T03:26:18;8.30;99.90
5172;DHT22;2605;49.770;9.868;2023-12-29T03:28:44;8.30;99.90
5172;DHT22;2605;49.770;9.868;2023-12-29T03:31:09;8.30;99.90
5172;DHT22;2605;49.770;9.868;2023-12-29T03:33:35;8.30;99.90
5172;DHT22;2605;49.770;9.868;2023-12-29T03:36:00;8.20;99.90
5172;DHT22;2605;49.770;9.868;2023-12-29T03:38:26;8.20;99.90
5172;DHT22;2605;49.770;9.868;2023-12-29T03:40:51;8.20;99.90
5172;DHT22;2605;49.770;9.868;2023-12-29T03:43:17;8.20;99.90
5172;DHT22;2605;49.770;9.868;2023-12-29T03:45:42;8.20;99.90
5172;DHT22;2605;49.770;9.868;2023-12-29T03:48:08;8.10;99.90
5172;DHT22;2605;49.770;9.868;2023-12-29T03:50:34;8.20;99.90
5172;DHT22;2605;49.770;9.868;2023-12-29T03:53:00;8.30;99.90
5172;DHT22;2605;49.770;9.868;2023-12-29T03:55:25;8.20;99.90
5172;DHT22;2605;49.770;9.868;2023-12-29T03:57:50;8.20;99.90
5172;DHT22;2605;49.770;9.868;2023-12-29T04:00:17;8.20;99.90
5172;DHT22;2605;49.770;9.868;2023-12-29T04:02:45;8.20;99.90
5172;DHT22;2605;49.770;9.868;2023-12-29T04:05:11;8.10;99.90
5172;DHT22;2605;49.770;9.868;2023-12-29T04:07:39;8.20;99.90
5172;DHT22;2605;49.770;9.868;2023-12-29T04:10:06;8.10;99.90
5172;DHT22;2605;49.770;9.868;2023-12-29T04:12:31;8.10;99.90
5172;DHT22;2605;49.770;9.868;2023-12-29T04:14:57;8.10;99.90
5172;DHT22;2605;49.770;9.868;2023-12-29T04:17:22;8.10;99.90
5172;DHT22;2605;49.770;9.868;2023-12-29T04:19:48;8.20;99.90
5172;DHT22;2605;49.770;9.868;2023-12-29T04:22:13;8.20;99.90
5172;DHT22;2605;49.770;9.868;2023-12-29T04:24:39;8.20;99.90
5172;DHT22;2605;49.770;9.868;2023-12-29T04:27:05;8.20;99.90
5172;DHT22;2605;49.770;9.868;2023-12-29T04:29:30;8.20;99.90
5172;DHT22;2605;49.770;9.868;2023-12-29T04:31:56;8.20;99.90
5172;DHT22;2605;49.770;9.868;2023-12-29T04:34:21;8.20;99.90
5172;DHT22;2605;49.770;9.868;2023-12-29T04:36:50;8.20;99.90
5172;DHT22;2605;49.770;9.868;2023-12-29T04:39:15;8.20;99.90
5172;DHT22;2605;49.770;9.868;2023-12-29T04:41:41;8.20;99.90
5172;DHT22;2605;49.770;9.868;2023-12-29T04:44:06;8.20;99.90
5172;DHT22;2605;49.770;9.868;2023-12-29T04:46:32;8.10;99.90
5172;DHT22;2605;49.770;9.868;2023-12-29T04:48:57;8.10;99.90
5172;DHT22;2605;49.770;9.868;2023-12-29T04:51:23;8.00;99.90
5172;DHT22;2605;49.770;9.868;2023-12-29T04:53:48;7.90;99.90
5172;DHT22;2605;49.770;9.868;2023-12-29T04:56:14;7.90;99.90
5172;DHT22;2605;49.770;9.868;2023-12-29T04:58:39;7.90;99.90
5172;DHT22;2605;49.770;9.868;2023-12-29T05:01:05;7.70;99.90
5172;DHT22;2605;49.770;9.868;2023-12-29T05:03:30;7.60;99.90
5172;DHT22;2605;49.770;9.868;2023-12-29T05:05:55;7.60;99.90
5172;DHT22;2605;49.770;9.868;2023-12-29T05:08:21;7.50;99.90
5172;DHT22;2605;49.770;9.868;2023-12-29T05:10:46;7.40;99.90
5172;DHT22;2605;49.770;9.868;2023-12-29T05:13:12;7.50;99.90
5172;DHT22;2605;49.770;9.868;2023-12-29T05:15:37;7.50;99.90
5172;DHT22;2605;49.770;9.868;2023-12-29T05:18:03;7.40;99.90
5172;DHT22;2605;49.770;9.868;2023-12-29T05:20:29;7.40;99.90
5172;DHT22;2605;49.770;9.868;2023-12-29T05:22:54;7.40;99.90
5172;DHT22;2605;49.770;9.868;2023-12-29T05:25:20;7.30;99.90
5172;DHT22;2605;49.770;9.868;2023-12-29T05:27:47;7.20;99.90
5172;DHT22;2605;49.770;9.868;2023-12-29T05:30:13;7.20;99.90
5172;DHT22;2605;49.770;9.868;2023-12-29T05:32:38;7.20;99.90
5172;DHT22;2605;49.770;9.868;2023-12-29T05:35:04;7.20;99.90
5172;DHT22;2605;49.770;9.868;2023-12-29T05:37:30;7.10;99.90
5172;DHT22;2605;49.770;9.868;2023-12-29T05:39:56;7.20;99.90
5172;DHT22;2605;49.770;9.868;2023-12-29T05:42:21;7.10;99.90
5172;DHT22;2605;49.770;9.868;2023-12-29T05:44:46;7.10;99.90
5172;DHT22;2605;49.770;9.868;2023-12-29T05:47:12;7.10;99.90
5172;DHT22;2605;49.770;9.868;2023-12-29T05:49:38;7.10;99.90
5172;DHT22;2605;49.770;9.868;2023-12-29T05:52:07;7.10;99.90
5172;DHT22;2605;49.770;9.868;2023-12-29T05:54:33;7.10;99.90
5172;DHT22;2605;49.770;9.868;2023-12-29T05:56:59;7.10;99.90
5172;DHT22;2605;49.770;9.868;2023-12-29T05:59:25;7.20;99.90
5172;DHT22;2605;49.770;9.868;2023-12-29T06:01:50;7.30;99.90
5172;DHT22;2605;49.770;9.868;2023-12-29T06:04:16;7.20;99.90
5172;DHT22;2605;49.770;9.868;2023-12-29T06:06:44;7.10;99.90
5172;DHT22;2605;49.770;9.868;2023-12-29T06:09:11;7.10;99.90
5172;DHT22;2605;49.770;9.868;2023-12-29T06:11:36;7.10;99.90
5172;DHT22;2605;49.770;9.868;2023-12-29T06:14:02;7.00;99.90
5172;DHT22;2605;49.770;9.868;2023-12-29T06:16:27;7.10;99.90
5172;DHT22;2605;49.770;9.868;2023-12-29T06:18:55;7.00;99.90
5172;DHT22;2605;49.770;9.868;2023-12-29T06:21:20;7.00;99.90
5172;DHT22;2605;49.770;9.868;2023-12-29T06:23:46;6.90;99.90
5172;DHT22;2605;49.770;9.868;2023-12-29T06:26:16;7.00;99.90
5172;DHT22;2605;49.770;9.868;2023-12-29T06:28:42;7.00;99.90
5172;DHT22;2605;49.770;9.868;2023-12-29T06:31:07;7.00;99.90
5172;DHT22;2605;49.770;9.868;2023-12-29T06:33:33;7.00;99.90
5172;DHT22;2605;49.770;9.868;2023-12-29T06:36:01;7.00;99.90
5172;DHT22;2605;49.770;9.868;2023-12-29T06:38:27;7.20;99.90
5172;DHT22;2605;49.770;9.868;2023-12-29T06:40:52;7.20;99.90
5172;DHT22;2605;49.770;9.868;2023-12-29T06:43:18;7.30;99.90
5172;DHT22;2605;49.770;9.868;2023-12-29T06:45:43;7.20;99.90
5172;DHT22;2605;49.770;9.868;2023-12-29T06:48:09;7.30;99.90
5172;DHT22;2605;49.770;9.868;2023-12-29T06:50:35;7.40;99.90
5172;DHT22;2605;49.770;9.868;2023-12-29T06:53:02;7.50;99.90
5172;DHT22;2605;49.770;9.868;2023-12-29T06:55:28;7.50;99.90
5172;DHT22;2605;49.770;9.868;2023-12-29T06:57:54;7.60;99.90
5172;DHT22;2605;49.770;9.868;2023-12-29T07:00:19;7.60;99.90
5172;DHT22;2605;49.770;9.868;2023-12-29T07:02:45;7.60;99.90
5172;DHT22;2605;49.770;9.868;2023-12-29T07:05:10;7.50;99.90
5172;DHT22;2605;49.770;9.868;2023-12-29T07:07:36;7.50;99.90
5172;DHT22;2605;49.770;9.868;2023-12-29T07:10:03;7.60;99.90
5172;DHT22;2605;49.770;9.868;2023-12-29T07:12:29;7.60;99.90
5172;DHT22;2605;49.770;9.868;2023-12-29T07:14:54;7.70;99.90
5172;DHT22;2605;49.770;9.868;2023-12-29T07:17:20;7.70;99.90
5172;DHT22;2605;49.770;9.868;2023-12-29T07:19:45;7.70;99.90
5172;DHT22;2605;49.770;9.868;2023-12-29T07:22:11;7.70;99.90
5172;DHT22;2605;49.770;9.868;2023-12-29T07:24:36;7.70;99.90
5172;DHT22;2605;49.770;9.868;2023-12-29T07:27:02;7.60;99.90
5172;DHT22;2605;49.770;9.868;2023-12-29T07:29:28;7.60;99.90
5172;DHT22;2605;49.770;9.868;2023-12-29T07:31:54;7.50;99.90
5172;DHT22;2605;49.770;9.868;2023-12-29T07:34:20;7.50;99.90
5172;DHT22;2605;49.770;9.868;2023-12-29T07:36:45;7.40;99.90
5172;DHT22;2605;49.770;9.868;2023-12-29T07:39:11;7.50;99.90
5172;DHT22;2605;49.770;9.868;2023-12-29T07:41:43;7.50;99.90
5172;DHT22;2605;49.770;9.868;2023-12-29T07:44:11;7.60;99.90
5172;DHT22;2605;49.770;9.868;2023-12-29T07:46:38;7.70;99.90
5172;DHT22;2605;49.770;9.868;2023-12-29T07:49:04;7.80;99.90
5172;DHT22;2605;49.770;9.868;2023-12-29T07:51:30;7.90;99.90
5172;DHT22;2605;49.770;9.868;2023-12-29T07:53:55;7.90;99.90
5172;DHT22;2605;49.770;9.868;2023-12-29T07:56:21;8.00;99.90
5172;DHT22;2605;49.770;9.868;2023-12-29T07:58:46;8.00;99.90
5172;DHT22;2605;49.770;9.868;2023-12-29T08:01:12;8.10;99.90
5172;DHT22;2605;49.770;9.868;2023-12-29T08:03:40;8.10;99.90
5172;DHT22;2605;49.770;9.868;2023-12-29T08:06:06;8.30;99.90
5172;DHT22;2605;49.770;9.868;2023-12-29T08:08:31;8.20;99.90
5172;DHT22;2605;49.770;9.868;2023-12-29T08:10:57;8.30;99.90
5172;DHT22;2605;49.770;9.868;2023-12-29T08:13:22;8.20;99.90
5172;DHT22;2605;49.770;9.868;2023-12-29T08:15:47;8.30;99.90
5172;DHT22;2605;49.770;9.868;2023-12-29T08:18:13;8.30;99.90
5172;DHT22;2605;49.770;9.868;2023-12-29T08:20:38;8.30;99.90
5172;DHT22;2605;49.770;9.868;2023-12-29T08:23:04;8.30;99.90
5172;DHT22;2605;49.770;9.868;2023-12-29T08:25:29;8.30;99.90
5172;DHT22;2605;49.770;9.868;2023-12-29T08:27:58;8.40;99.90
5172;DHT22;2605;49.770;9.868;2023-12-29T08:30:24;8.40;99.90
5172;DHT22;2605;49.770;9.868;2023-12-29T08:32:49;8.40;99.90
5172;DHT22;2605;49.770;9.868;2023-12-29T08:35:15;8.40;99.90
5172;DHT22;2605;49.770;9.868;2023-12-29T08:37:40;8.50;99.90
5172;DHT22;2605;49.770;9.868;2023-12-29T08:40:06;8.50;99.90
5172;DHT22;2605;49.770;9.868;2023-12-29T08:42:33;8.50;99.90
5172;DHT22;2605;49.770;9.868;2023-12-29T08:44:59;8.60;99.90
5172;DHT22;2605;49.770;9.868;2023-12-29T08:47:28;8.70;99.90
5172;DHT22;2605;49.770;9.868;2023-12-29T08:49:53;8.60;99.90
5172;DHT22;2605;49.770;9.868;2023-12-29T08:52:20;8.70;99.90
5172;DHT22;2605;49.770;9.868;2023-12-29T08:54:45;8.70;99.90
5172;DHT22;2605;49.770;9.868;2023-12-29T08:57:11;8.80;99.90
5172;DHT22;2605;49.770;9.868;2023-12-29T08:59:37;8.70;99.90
5172;DHT22;2605;49.770;9.868;2023-12-29T09:02:03;8.80;99.90
5172;DHT22;2605;49.770;9.868;2023-12-29T09:04:28;8.90;99.90
5172;DHT22;2605;49.770;9.868;2023-12-29T09:06:54;8.80;99.90
5172;DHT22;2605;49.770;9.868;2023-12-29T09:09:19;8.90;99.90
5172;DHT22;2605;49.770;9.868;2023-12-29T09:11:45;8.80;99.90
5172;DHT22;2605;49.770;9.868;2023-12-29T09:14:12;8.90;99.90
5172;DHT22;2605;49.770;9.868;2023-12-29T09:16:38;8.90;99.90
5172;DHT22;2605;49.770;9.868;2023-12-29T09:19:03;9.00;99.90
5172;DHT22;2605;49.770;9.868;2023-12-29T09:21:29;9.00;99.90
5172;DHT22;2605;49.770;9.868;2023-12-29T09:23:54;9.00;99.90
5172;DHT22;2605;49.770;9.868;2023-12-29T09:26:20;9.10;99.90
5172;DHT22;2605;49.770;9.868;2023-12-29T09:28:45;9.20;99.90
5172;DHT22;2605;49.770;9.868;2023-12-29T09:31:12;9.10;99.90
5172;DHT22;2605;49.770;9.868;2023-12-29T09:33:37;9.10;99.90
5172;DHT22;2605;49.770;9.868;2023-12-29T09:36:03;9.10;99.90
5172;DHT22;2605;49.770;9.868;2023-12-29T09:38:29;9.10;99.90
5172;DHT22;2605;49.770;9.868;2023-12-29T09:40:59;9.20;99.90
5172;DHT22;2605;49.770;9.868;2023-12-29T09:43:25;9.10;99.90
5172;DHT22;2605;49.770;9.868;2023-12-29T09:45:52;9.10;99.90
5172;DHT22;2605;49.770;9.868;2023-12-29T09:48:20;9.10;99.90
5172;DHT22;2605;49.770;9.868;2023-12-29T09:50:53;9.20;99.90
5172;DHT22;2605;49.770;9.868;2023-12-29T09:53:20;9.10;99.90
5172;DHT22;2605;49.770;9.868;2023-12-29T09:55:48;9.10;99.90
5172;DHT22;2605;49.770;9.868;2023-12-29T09:58:15;9.10;99.90
5172;DHT22;2605;49.770;9.868;2023-12-29T10:00:42;9.10;99.90
5172;DHT22;2605;49.770;9.868;2023-12-29T10:03:08;9.10;99.90
5172;DHT22;2605;49.770;9.868;2023-12-29T10:05:34;9.10;99.90
5172;DHT22;2605;49.770;9.868;2023-12-29T10:08:02;9.20;99.90
5172;DHT22;2605;49.770;9.868;2023-12-29T10:10:30;9.20;99.90
5172;DHT22;2605;49.770;9.868;2023-12-29T10:12:56;9.50;99.90
5172;DHT22;2605;49.770;9.868;2023-12-29T10:15:47;9.60;99.90
5172;DHT22;2605;49.770;9.868;2023-12-29T10:23:51;9.70;99.90
5172;DHT22;2605;49.770;9.868;2023-12-29T10:26:19;9.80;99.90
5172;DHT22;2605;49.770;9.868;2023-12-29T10:28:47;9.90;99.90
5172;DHT22;2605;49.770;9.868;2023-12-29T10:31:15;9.80;99.90
5172;DHT22;2605;49.770;9.868;2023-12-29T10:33:41;9.70;99.90
5172;DHT22;2605;49.770;9.868;2023-12-29T10:36:06;9.70;99.90
5172;DHT22;2605;49.770;9.868;2023-12-29T10:38:33;9.80;99.90
5172;DHT22;2605;49.770;9.868;2023-12-29T10:41:14;9.80;99.90
5172;DHT22;2605;49.770;9.868;2023-12-29T10:43:41;9.80;99.90
5172;DHT22;2605;49.770;9.868;2023-12-29T10:46:09;9.80;99.90
5172;DHT22;2605;49.770;9.868;2023-12-29T10:48:35;9.80;99.90
5172;DHT22;2605;49.770;9.868;2023-12-29T10:51:04;9.90;99.90
5172;DHT22;2605;49.770;9.868;2023-12-29T10:53:32;9.90;99.90
5172;DHT22;2605;49.770;9.868;2023-12-29T10:55:57;9.80;99.90
5172;DHT22;2605;49.770;9.868;2023-12-29T10:58:24;10.00;99.90
5172;DHT22;2605;49.770;9.868;2023-12-29T11:00:53;10.10;99.90
5172;DHT22;2605;49.770;9.868;2023-12-29T11:03:19;10.20;99.90
5172;DHT22;2605;49.770;9.868;2023-12-29T11:05:44;10.40;99.90
5172;DHT22;2605;49.770;9.868;2023-12-29T11:08:20;10.70;99.90
5172;DHT22;2605;49.770;9.868;2023-12-29T11:10:49;10.70;99.90
5172;DHT22;2605;49.770;9.868;2023-12-29T11:13:15;10.80;99.90
5172;DHT22;2605;49.770;9.868;2023-12-29T11:15:45;10.70;99.90
5172;DHT22;2605;49.770;9.868;2023-12-29T11:18:15;10.50;99.90
5172;DHT22;2605;49.770;9.868;2023-12-29T11:20:42;10.30;99.90
5172;DHT22;2605;49.770;9.868;2023-12-29T11:23:09;10.20;99.90
5172;DHT22;2605;49.770;9.868;2023-12-29T11:25:35;10.10;99.90
5172;DHT22;2605;49.770;9.868;2023-12-29T11:28:01;10.00;99.90
5172;DHT22;2605;49.770;9.868;2023-12-29T11:30:27;10.00;99.90
5172;DHT22;2605;49.770;9.868;2023-12-29T11:33:15;9.90;99.90
5172;DHT22;2605;49.770;9.868;2023-12-29T11:35:45;9.90;99.90
5172;DHT22;2605;49.770;9.868;2023-12-29T11:38:53;9.80;99.90
5172;DHT22;2605;49.770;9.868;2023-12-29T11:43:58;9.80;99.90
5172;DHT22;2605;49.770;9.868;2023-12-29T11:46:49;9.80;99.90
5172;DHT22;2605;49.770;9.868;2023-12-29T11:49:15;9.80;99.90
5172;DHT22;2605;49.770;9.868;2023-12-29T11:51:42;9.80;99.90
5172;DHT22;2605;49.770;9.868;2023-12-29T11:54:10;9.90;99.90
5172;DHT22;2605;49.770;9.868;2023-12-29T11:56:46;10.00;99.90
5172;DHT22;2605;49.770;9.868;2023-12-29T12:01:42;10.00;99.90
5172;DHT22;2605;49.770;9.868;2023-12-29T12:04:36;10.00;99.90
5172;DHT22;2605;49.770;9.868;2023-12-29T12:07:15;10.00;99.90
5172;DHT22;2605;49.770;9.868;2023-12-29T12:09:40;10.10;99.90
5172;DHT22;2605;49.770;9.868;2023-12-29T12:12:06;10.00;99.90
5172;DHT22;2605;49.770;9.868;2023-12-29T12:14:49;10.00;99.90
5172;DHT22;2605;49.770;9.868;2023-12-29T12:17:34;10.00;99.90
5172;DHT22;2605;49.770;9.868;2023-12-29T12:20:08;10.00;99.90
5172;DHT22;2605;49.770;9.868;2023-12-29T12:22:35;9.90;99.90
5172;DHT22;2605;49.770;9.868;2023-12-29T12:25:02;9.90;99.90
5172;DHT22;2605;49.770;9.868;2023-12-29T12:27:29;9.90;99.90
5172;DHT22;2605;49.770;9.868;2023-12-29T12:29:56;9.90;99.90
5172;DHT22;2605;49.770;9.868;2023-12-29T12:32:24;9.90;99.90
5172;DHT22;2605;49.770;9.868;2023-12-29T12:34:50;9.90;99.90
5172;DHT22;2605;49.770;9.868;2023-12-29T12:37:20;10.00;99.90
5172;DHT22;2605;49.770;9.868;2023-12-29T12:39:46;9.90;99.90
5172;DHT22;2605;49.770;9.868;2023-12-29T12:42:11;10.00;99.90
5172;DHT22;2605;49.770;9.868;2023-12-29T12:44:42;10.00;99.90
5172;DHT22;2605;49.770;9.868;2023-12-29T12:47:15;10.10;99.90
5172;DHT22;2605;49.770;9.868;2023-12-29T12:49:42;10.10;99.90
5172;DHT22;2605;49.770;9.868;2023-12-29T12:52:08;10.10;99.90
5172;DHT22;2605;49.770;9.868;2023-12-29T12:54:34;10.20;99.90
5172;DHT22;2605;49.770;9.868;2023-12-29T12:56:59;10.20;99.90
5172;DHT22;2605;49.770;9.868;2023-12-29T12:59:27;10.20;99.90
5172;DHT22;2605;49.770;9.868;2023-12-29T13:01:53;10.20;99.90
5172;DHT22;2605;49.770;9.868;2023-12-29T13:04:18;10.20;99.90
5172;DHT22;2605;49.770;9.868;2023-12-29T13:06:44;10.20;99.90
5172;DHT22;2605;49.770;9.868;2023-12-29T13:09:10;10.20;99.90
5172;DHT22;2605;49.770;9.868;2023-12-29T13:11:42;10.20;99.90
5172;DHT22;2605;49.770;9.868;2023-12-29T13:14:23;10.20;99.90
5172;DHT22;2605;49.770;9.868;2023-12-29T13:16:54;10.10;99.90
5172;DHT22;2605;49.770;9.868;2023-12-29T13:19:23;10.10;99.90
5172;DHT22;2605;49.770;9.868;2023-12-29T13:21:54;10.20;99.90
5172;DHT22;2605;49.770;9.868;2023-12-29T13:24:23;10.20;99.90
5172;DHT22;2605;49.770;9.868;2023-12-29T13:27:16;10.20;99.90
5172;DHT22;2605;49.770;9.868;2023-12-29T13:29:42;10.20;99.90
5172;DHT22;2605;49.770;9.868;2023-12-29T13:32:23;10.40;99.90
5172;DHT22;2605;49.770;9.868;2023-12-29T13:35:04;10.40;99.90
5172;DHT22;2605;49.770;9.868;2023-12-29T13:37:37;10.50;99.90
5172;DHT22;2605;49.770;9.868;2023-12-29T13:40:23;10.60;99.90
5172;DHT22;2605;49.770;9.868;2023-12-29T13:42:55;10.60;99.90
5172;DHT22;2605;49.770;9.868;2023-12-29T13:45:22;10.80;99.90
5172;DHT22;2605;49.770;9.868;2023-12-29T13:47:48;10.80;99.90
5172;DHT22;2605;49.770;9.868;2023-12-29T13:50:14;10.80;99.90
5172;DHT22;2605;49.770;9.868;2023-12-29T13:52:40;10.80;99.90
5172;DHT22;2605;49.770;9.868;2023-12-29T13:55:06;10.70;99.90
5172;DHT22;2605;49.770;9.868;2023-12-29T13:57:32;10.80;99.90
5172;DHT22;2605;49.770;9.868;2023-12-29T14:02:44;10.60;99.90
5172;DHT22;2605;49.770;9.868;2023-12-29T14:08:04;10.70;99.90
5172;DHT22;2605;49.770;9.868;2023-12-29T14:10:36;10.50;99.90
5172;DHT22;2605;49.770;9.868;2023-12-29T14:13:09;10.60;99.90
5172;DHT22;2605;49.770;9.868;2023-12-29T14:15:39;10.60;99.90
5172;DHT22;2605;49.770;9.868;2023-12-29T14:20:59;10.60;99.90
5172;DHT22;2605;49.770;9.868;2023-12-29T14:23:25;10.60;99.90
5172;DHT22;2605;49.770;9.868;2023-12-29T14:25:51;10.50;99.90
5172;DHT22;2605;49.770;9.868;2023-12-29T14:28:20;10.50;99.90
5172;DHT22;2605;49.770;9.868;2023-12-29T14:30:49;10.40;99.90
5172;DHT22;2605;49.770;9.868;2023-12-29T14:33:15;10.40;99.90
5172;DHT22;2605;49.770;9.868;2023-12-29T14:35:41;10.40;99.90
5172;DHT22;2605;49.770;9.868;2023-12-29T14:38:10;10.40;99.90
5172;DHT22;2605;49.770;9.868;2023-12-29T14:40:41;10.50;99.90
5172;DHT22;2605;49.770;9.868;2023-12-29T14:43:07;10.50;99.90
5172;DHT22;2605;49.770;9.868;2023-12-29T14:45:32;10.30;99.90
5172;DHT22;2605;49.770;9.868;2023-12-29T14:47:58;10.20;99.90
5172;DHT22;2605;49.770;9.868;2023-12-29T14:50:25;10.10;99.90
5172;DHT22;2605;49.770;9.868;2023-12-29T14:52:51;10.00;99.90
5172;DHT22;2605;49.770;9.868;2023-12-29T14:55:16;9.80;99.90
5172;DHT22;2605;49.770;9.868;2023-12-29T14:57:42;9.80;99.90
5172;DHT22;2605;49.770;9.868;2023-12-29T15:00:10;9.70;99.90
5172;DHT22;2605;49.770;9.868;2023-12-29T15:02:35;9.70;99.90
5172;DHT22;2605;49.770;9.868;2023-12-29T15:05:01;9.70;99.90
5172;DHT22;2605;49.770;9.868;2023-12-29T15:07:26;9.60;99.90
5172;DHT22;2605;49.770;9.868;2023-12-29T15:09:56;9.50;99.90
5172;DHT22;2605;49.770;9.868;2023-12-29T15:12:21;9.40;99.90
5172;DHT22;2605;49.770;9.868;2023-12-29T15:14:47;9.30;99.90
5172;DHT22;2605;49.770;9.868;2023-12-29T15:17:12;9.30;99.90
5172;DHT22;2605;49.770;9.868;2023-12-29T15:19:38;9.20;99.90
5172;DHT22;2605;49.770;9.868;2023-12-29T15:22:03;9.20;99.90
5172;DHT22;2605;49.770;9.868;2023-12-29T15:24:29;9.20;99.90
5172;DHT22;2605;49.770;9.868;2023-12-29T15:26:54;9.30;99.90
5172;DHT22;2605;49.770;9.868;2023-12-29T15:29:20;9.20;99.90
5172;DHT22;2605;49.770;9.868;2023-12-29T15:31:45;9.20;99.90
5172;DHT22;2605;49.770;9.868;2023-12-29T15:34:12;9.30;99.90
5172;DHT22;2605;49.770;9.868;2023-12-29T15:36:37;9.20;99.90
5172;DHT22;2605;49.770;9.868;2023-12-29T15:39:03;9.30;99.90
5172;DHT22;2605;49.770;9.868;2023-12-29T15:41:31;9.30;99.90
5172;DHT22;2605;49.770;9.868;2023-12-29T15:43:57;9.30;99.90
5172;DHT22;2605;49.770;9.868;2023-12-29T15:46:23;9.30;99.90
5172;DHT22;2605;49.770;9.868;2023-12-29T15:48:48;9.40;99.90
5172;DHT22;2605;49.770;9.868;2023-12-29T15:51:14;9.30;99.90
5172;DHT22;2605;49.770;9.868;2023-12-29T15:53:42;9.20;99.90
5172;DHT22;2605;49.770;9.868;2023-12-29T15:56:18;9.30;99.90
5172;DHT22;2605;49.770;9.868;2023-12-29T15:58:45;9.20;99.90
5172;DHT22;2605;49.770;9.868;2023-12-29T16:01:19;9.20;99.90
5172;DHT22;2605;49.770;9.868;2023-12-29T16:03:44;9.40;99.90
5172;DHT22;2605;49.770;9.868;2023-12-29T16:06:18;9.30;99.90
5172;DHT22;2605;49.770;9.868;2023-12-29T16:08:43;9.30;99.90
5172;DHT22;2605;49.770;9.868;2023-12-29T16:11:21;9.40;99.90
5172;DHT22;2605;49.770;9.868;2023-12-29T16:13:47;9.30;99.90
5172;DHT22;2605;49.770;9.868;2023-12-29T16:16:12;9.30;99.90
5172;DHT22;2605;49.770;9.868;2023-12-29T16:18:38;9.30;99.90
5172;DHT22;2605;49.770;9.868;2023-12-29T16:21:04;9.30;99.90
5172;DHT22;2605;49.770;9.868;2023-12-29T16:23:30;9.30;99.90
5172;DHT22;2605;49.770;9.868;2023-12-29T16:25:55;9.20;99.90
5172;DHT22;2605;49.770;9.868;2023-12-29T16:28:21;9.20;99.90
5172;DHT22;2605;49.770;9.868;2023-12-29T16:30:48;9.10;99.90
5172;DHT22;2605;49.770;9.868;2023-12-29T16:33:14;9.00;99.90